Surfside Beach, South Carolina
Current Conditions -  °F | °C
As of 8:45 PM on Thursday 20 Nov 2014 (Local Time) from KMYR Reporting Station
Clear Clear  
Wind Chill: 52°   Ceiling: Unl
Heat Index: 52°   Visibility: 10mi
Dew Point: 36°   Wind: 8mph
Humidity: 54%   Direction: 240°WSW
Pressure: 30.19"   Gusts: NA
Location:  33.6169°N, 78.9894°W
Report Text: KMYR 210145Z 24007KT 10SM CLR 11/02 A3019
Loading
Personal Weather Stations






























Interactive Weather Map New forecast layout! Learn more

10-Day Weather Forecast

Advertisements
Track Severe Weather on mobile